sensor_id;sensor_type;location;lat;lon;timestamp;temperature;humidity
67279;DHT22;54193;53.746;10.058;2023-02-28T00:00:27;2.72;82.64
67279;DHT22;54193;53.746;10.058;2023-02-28T00:03:13;2.55;84.19
67279;DHT22;54193;53.746;10.058;2023-02-28T00:05:59;2.37;85.70
67279;DHT22;54193;53.746;10.058;2023-02-28T00:08:44;2.20;86.98
67279;DHT22;54193;53.746;10.058;2023-02-28T00:11:30;2.21;86.89
67279;DHT22;54193;53.746;10.058;2023-02-28T00:14:16;2.06;87.52
67279;DHT22;54193;53.746;10.058;2023-02-28T00:17:01;1.93;88.25
67279;DHT22;54193;53.746;10.058;2023-02-28T00:19:48;1.81;88.63
67279;DHT22;54193;53.746;10.058;2023-02-28T00:22:34;1.83;88.57
67279;DHT22;54193;53.746;10.058;2023-02-28T00:25:22;1.97;88.24
67279;DHT22;54193;53.746;10.058;2023-02-28T00:28:08;2.04;87.90
67279;DHT22;54193;53.746;10.058;2023-02-28T00:30:53;1.89;87.37
67279;DHT22;54193;53.746;10.058;2023-02-28T00:33:39;1.74;87.63
67279;DHT22;54193;53.746;10.058;2023-02-28T00:36:25;1.77;87.73
67279;DHT22;54193;53.746;10.058;2023-02-28T00:39:11;1.83;86.92
67279;DHT22;54193;53.746;10.058;2023-02-28T00:41:56;1.91;86.01
67279;DHT22;54193;53.746;10.058;2023-02-28T00:44:42;2.03;86.62
67279;DHT22;54193;53.746;10.058;2023-02-28T00:47:28;2.03;87.08
67279;DHT22;54193;53.746;10.058;2023-02-28T00:50:13;2.06;86.81
67279;DHT22;54193;53.746;10.058;2023-02-28T00:52:59;2.08;86.41
67279;DHT22;54193;53.746;10.058;2023-02-28T00:55:44;2.04;86.61
67279;DHT22;54193;53.746;10.058;2023-02-28T00:58:30;2.06;86.54
67279;DHT22;54193;53.746;10.058;2023-02-28T01:01:16;2.03;86.19
67279;DHT22;54193;53.746;10.058;2023-02-28T01:04:01;2.03;85.53
67279;DHT22;54193;53.746;10.058;2023-02-28T01:06:47;1.99;85.61
67279;DHT22;54193;53.746;10.058;2023-02-28T01:09:33;2.07;86.06
67279;DHT22;54193;53.746;10.058;2023-02-28T01:12:18;2.04;86.47
67279;DHT22;54193;53.746;10.058;2023-02-28T01:15:04;2.06;86.26
67279;DHT22;54193;53.746;10.058;2023-02-28T01:17:50;2.04;86.00
67279;DHT22;54193;53.746;10.058;2023-02-28T01:20:37;1.87;86.46
67279;DHT22;54193;53.746;10.058;2023-02-28T01:23:23;1.90;86.85
67279;DHT22;54193;53.746;10.058;2023-02-28T01:26:12;1.86;87.09
67279;DHT22;54193;53.746;10.058;2023-02-28T01:28:59;1.86;87.07
67279;DHT22;54193;53.746;10.058;2023-02-28T01:31:44;1.91;87.20
67279;DHT22;54193;53.746;10.058;2023-02-28T01:34:30;1.83;86.43
67279;DHT22;54193;53.746;10.058;2023-02-28T01:37:16;1.81;86.56
67279;DHT22;54193;53.746;10.058;2023-02-28T01:40:02;1.87;87.03
67279;DHT22;54193;53.746;10.058;2023-02-28T01:42:48;2.10;87.04
67279;DHT22;54193;53.746;10.058;2023-02-28T01:45:35;2.17;86.15
67279;DHT22;54193;53.746;10.058;2023-02-28T01:48:31;2.21;86.07
67279;DHT22;54193;53.746;10.058;2023-02-28T01:51:22;2.17;85.91
67279;DHT22;54193;53.746;10.058;2023-02-28T01:54:14;2.20;86.03
67279;DHT22;54193;53.746;10.058;2023-02-28T01:57:07;2.10;85.76
67279;DHT22;54193;53.746;10.058;2023-02-28T01:59:57;2.08;86.08
67279;DHT22;54193;53.746;10.058;2023-02-28T02:02:48;1.96;85.85
67279;DHT22;54193;53.746;10.058;2023-02-28T02:05:36;1.83;86.72
67279;DHT22;54193;53.746;10.058;2023-02-28T02:08:26;1.66;87.29
67279;DHT22;54193;53.746;10.058;2023-02-28T02:11:18;1.49;87.66
67279;DHT22;54193;53.746;10.058;2023-02-28T02:14:41;1.35;87.22
67279;DHT22;54193;53.746;10.058;2023-02-28T02:17:35;1.21;86.96
67279;DHT22;54193;53.746;10.058;2023-02-28T02:27:05;1.35;87.25
67279;DHT22;54193;53.746;10.058;2023-02-28T02:33:28;1.24;87.02
67279;DHT22;54193;53.746;10.058;2023-02-28T02:39:28;1.31;87.04
67279;DHT22;54193;53.746;10.058;2023-02-28T02:42:24;1.43;87.03
67279;DHT22;54193;53.746;10.058;2023-02-28T02:48:12;1.49;85.24
67279;DHT22;54193;53.746;10.058;2023-02-28T02:51:01;1.51;85.62
67279;DHT22;54193;53.746;10.058;2023-02-28T02:53:50;1.66;85.19
67279;DHT22;54193;53.746;10.058;2023-02-28T02:56:39;1.62;84.60
67279;DHT22;54193;53.746;10.058;2023-02-28T02:59:27;1.56;84.79
67279;DHT22;54193;53.746;10.058;2023-02-28T03:02:15;1.46;85.16
67279;DHT22;54193;53.746;10.058;2023-02-28T03:05:12;1.55;85.57
67279;DHT22;54193;53.746;10.058;2023-02-28T03:08:03;1.56;84.54
67279;DHT22;54193;53.746;10.058;2023-02-28T03:10:51;1.48;84.74
67279;DHT22;54193;53.746;10.058;2023-02-28T03:13:49;1.28;84.73
67279;DHT22;54193;53.746;10.058;2023-02-28T03:17:58;0.77;87.25
67279;DHT22;54193;53.746;10.058;2023-02-28T03:21:01;0.52;88.41
67279;DHT22;54193;53.746;10.058;2023-02-28T03:23:59;0.65;88.58
67279;DHT22;54193;53.746;10.058;2023-02-28T03:26:53;0.62;88.77
67279;DHT22;54193;53.746;10.058;2023-02-28T03:29:46;0.62;88.75
67279;DHT22;54193;53.746;10.058;2023-02-28T03:32:40;0.62;88.80
67279;DHT22;54193;53.746;10.058;2023-02-28T03:35:35;0.63;88.63
67279;DHT22;54193;53.746;10.058;2023-02-28T03:41:14;0.53;88.70
67279;DHT22;54193;53.746;10.058;2023-02-28T03:44:06;0.46;88.79
67279;DHT22;54193;53.746;10.058;2023-02-28T03:47:00;0.44;88.88
67279;DHT22;54193;53.746;10.058;2023-02-28T03:49:53;0.35;89.11
67279;DHT22;54193;53.746;10.058;2023-02-28T03:52:50;0.29;89.34
67279;DHT22;54193;53.746;10.058;2023-02-28T03:55:47;0.24;89.45
67279;DHT22;54193;53.746;10.058;2023-02-28T03:58:55;0.04;89.77
67279;DHT22;54193;53.746;10.058;2023-02-28T04:01:44;-0.13;89.63
67279;DHT22;54193;53.746;10.058;2023-02-28T04:04:31;-0.17;89.70
67279;DHT22;54193;53.746;10.058;2023-02-28T04:07:17;-0.18;89.80
67279;DHT22;54193;53.746;10.058;2023-02-28T04:10:04;-0.09;89.97
67279;DHT22;54193;53.746;10.058;2023-02-28T04:12:50;-0.18;89.98
67279;DHT22;54193;53.746;10.058;2023-02-28T04:15:35;-0.18;90.08
67279;DHT22;54193;53.746;10.058;2023-02-28T04:18:22;-0.21;90.08
67279;DHT22;54193;53.746;10.058;2023-02-28T04:21:07;-0.30;90.17
67279;DHT22;54193;53.746;10.058;2023-02-28T04:23:53;-0.44;90.39
67279;DHT22;54193;53.746;10.058;2023-02-28T04:26:40;-0.45;90.39
67279;DHT22;54193;53.746;10.058;2023-02-28T04:29:31;-0.42;90.49
67279;DHT22;54193;53.746;10.058;2023-02-28T04:32:17;-0.45;90.60
67279;DHT22;54193;53.746;10.058;2023-02-28T04:35:03;-0.58;90.56
67279;DHT22;54193;53.746;10.058;2023-02-28T04:37:49;-0.76;90.53
67279;DHT22;54193;53.746;10.058;2023-02-28T04:40:35;-0.93;90.62
67279;DHT22;54193;53.746;10.058;2023-02-28T04:43:20;-1.17;91.06
67279;DHT22;54193;53.746;10.058;2023-02-28T04:46:06;-1.19;91.03
67279;DHT22;54193;53.746;10.058;2023-02-28T04:48:52;-1.29;91.19
67279;DHT22;54193;53.746;10.058;2023-02-28T04:51:40;-1.33;91.31
67279;DHT22;54193;53.746;10.058;2023-02-28T04:54:25;-1.38;91.47
67279;DHT22;54193;53.746;10.058;2023-02-28T04:57:11;-1.40;91.48
67279;DHT22;54193;53.746;10.058;2023-02-28T04:59:57;-1.46;91.52
67279;DHT22;54193;53.746;10.058;2023-02-28T05:02:44;-1.44;92.34
67279;DHT22;54193;53.746;10.058;2023-02-28T05:05:29;-1.37;92.31
67279;DHT22;54193;53.746;10.058;2023-02-28T05:08:15;-1.41;92.66
67279;DHT22;54193;53.746;10.058;2023-02-28T05:11:01;-1.46;92.81
67279;DHT22;54193;53.746;10.058;2023-02-28T05:13:47;-1.48;92.73
67279;DHT22;54193;53.746;10.058;2023-02-28T05:16:33;-1.69;92.64
67279;DHT22;54193;53.746;10.058;2023-02-28T05:19:19;-1.74;92.33
67279;DHT22;54193;53.746;10.058;2023-02-28T05:22:13;-1.72;92.23
67279;DHT22;54193;53.746;10.058;2023-02-28T05:24:59;-1.82;92.29
67279;DHT22;54193;53.746;10.058;2023-02-28T05:27:44;-1.75;92.28
67279;DHT22;54193;53.746;10.058;2023-02-28T05:30:30;-1.75;92.48
67279;DHT22;54193;53.746;10.058;2023-02-28T05:33:17;-1.85;92.48
67279;DHT22;54193;53.746;10.058;2023-02-28T05:36:04;-1.81;92.52
67279;DHT22;54193;53.746;10.058;2023-02-28T05:38:50;-1.71;92.65
67279;DHT22;54193;53.746;10.058;2023-02-28T05:41:36;-1.69;92.69
67279;DHT22;54193;53.746;10.058;2023-02-28T05:44:21;-1.74;92.58
67279;DHT22;54193;53.746;10.058;2023-02-28T05:47:07;-1.87;92.47
67279;DHT22;54193;53.746;10.058;2023-02-28T05:49:53;-1.95;92.45
67279;DHT22;54193;53.746;10.058;2023-02-28T05:52:38;-1.90;92.39
67279;DHT22;54193;53.746;10.058;2023-02-28T05:55:24;-1.78;92.30
67279;DHT22;54193;53.746;10.058;2023-02-28T05:58:10;-1.81;92.30
67279;DHT22;54193;53.746;10.058;2023-02-28T06:00:59;-1.96;92.42
67279;DHT22;54193;53.746;10.058;2023-02-28T06:03:45;-2.07;92.63
67279;DHT22;54193;53.746;10.058;2023-02-28T06:06:31;-2.03;92.57
67279;DHT22;54193;53.746;10.058;2023-02-28T06:09:18;-2.05;92.57
67279;DHT22;54193;53.746;10.058;2023-02-28T06:12:05;-2.14;92.53
67279;DHT22;54193;53.746;10.058;2023-02-28T06:14:52;-2.23;92.61
67279;DHT22;54193;53.746;10.058;2023-02-28T06:17:38;-2.26;92.59
67279;DHT22;54193;53.746;10.058;2023-02-28T06:20:25;-2.23;92.64
67279;DHT22;54193;53.746;10.058;2023-02-28T06:23:11;-2.10;92.53
67279;DHT22;54193;53.746;10.058;2023-02-28T06:25:57;-2.07;92.48
67279;DHT22;54193;53.746;10.058;2023-02-28T06:28:43;-2.24;92.73
67279;DHT22;54193;53.746;10.058;2023-02-28T06:31:29;-2.03;92.71
67279;DHT22;54193;53.746;10.058;2023-02-28T06:34:16;-2.02;92.54
67279;DHT22;54193;53.746;10.058;2023-02-28T06:37:02;-2.06;92.61
67279;DHT22;54193;53.746;10.058;2023-02-28T06:39:50;-2.10;92.69
67279;DHT22;54193;53.746;10.058;2023-02-28T06:42:36;-1.92;92.77
67279;DHT22;54193;53.746;10.058;2023-02-28T06:45:21;-1.87;92.79
67279;DHT22;54193;53.746;10.058;2023-02-28T06:48:07;-1.85;92.85
67279;DHT22;54193;53.746;10.058;2023-02-28T06:51:04;-1.83;92.78
67279;DHT22;54193;53.746;10.058;2023-02-28T06:53:50;-1.86;92.69
67279;DHT22;54193;53.746;10.058;2023-02-28T06:56:36;-1.93;92.62
67279;DHT22;54193;53.746;10.058;2023-02-28T06:59:22;-1.79;92.60
67279;DHT22;54193;53.746;10.058;2023-02-28T07:02:08;-1.58;92.67
67279;DHT22;54193;53.746;10.058;2023-02-28T07:04:53;-1.50;92.58
67279;DHT22;54193;53.746;10.058;2023-02-28T07:07:39;-1.50;92.55
67279;DHT22;54193;53.746;10.058;2023-02-28T07:10:30;-1.43;92.48
67279;DHT22;54193;53.746;10.058;2023-02-28T07:13:16;-1.34;92.43
67279;DHT22;54193;53.746;10.058;2023-02-28T07:16:04;-1.43;92.20
67279;DHT22;54193;53.746;10.058;2023-02-28T07:18:54;-1.43;92.32
67279;DHT22;54193;53.746;10.058;2023-02-28T07:21:40;-1.27;92.18
67279;DHT22;54193;53.746;10.058;2023-02-28T07:24:25;-1.07;91.55
67279;DHT22;54193;53.746;10.058;2023-02-28T07:27:13;-0.96;91.33
67279;DHT22;54193;53.746;10.058;2023-02-28T07:30:09;-0.75;90.83
67279;DHT22;54193;53.746;10.058;2023-02-28T07:32:55;-0.54;90.33
67279;DHT22;54193;53.746;10.058;2023-02-28T07:35:41;-0.44;90.51
67279;DHT22;54193;53.746;10.058;2023-02-28T07:38:27;-0.35;90.53
67279;DHT22;54193;53.746;10.058;2023-02-28T07:41:12;-0.24;90.94
67279;DHT22;54193;53.746;10.058;2023-02-28T07:43:58;-0.11;90.11
67279;DHT22;54193;53.746;10.058;2023-02-28T07:46:44;-0.03;89.77
67279;DHT22;54193;53.746;10.058;2023-02-28T07:49:30;0.18;88.81
67279;DHT22;54193;53.746;10.058;2023-02-28T07:52:17;0.38;88.36
67279;DHT22;54193;53.746;10.058;2023-02-28T07:55:04;0.55;88.01
67279;DHT22;54193;53.746;10.058;2023-02-28T07:57:50;0.72;87.12
67279;DHT22;54193;53.746;10.058;2023-02-28T08:00:36;0.98;86.42
67279;DHT22;54193;53.746;10.058;2023-02-28T08:03:23;1.11;85.66
67279;DHT22;54193;53.746;10.058;2023-02-28T08:06:17;1.28;85.26
67279;DHT22;54193;53.746;10.058;2023-02-28T08:09:03;1.43;85.06
67279;DHT22;54193;53.746;10.058;2023-02-28T08:11:50;1.81;84.77
67279;DHT22;54193;53.746;10.058;2023-02-28T08:14:36;2.34;84.73
67279;DHT22;54193;53.746;10.058;2023-02-28T08:17:21;2.96;82.58
67279;DHT22;54193;53.746;10.058;2023-02-28T08:20:07;2.71;80.29
67279;DHT22;54193;53.746;10.058;2023-02-28T08:22:54;2.90;80.15
67279;DHT22;54193;53.746;10.058;2023-02-28T08:25:41;2.84;80.06
67279;DHT22;54193;53.746;10.058;2023-02-28T08:28:26;2.75;79.25
67279;DHT22;54193;53.746;10.058;2023-02-28T08:31:14;3.31;79.24
67279;DHT22;54193;53.746;10.058;2023-02-28T08:34:08;3.34;78.46
67279;DHT22;54193;53.746;10.058;2023-02-28T08:36:55;4.52;73.63
67279;DHT22;54193;53.746;10.058;2023-02-28T08:39:41;4.90;71.42
67279;DHT22;54193;53.746;10.058;2023-02-28T08:42:26;5.55;68.69
67279;DHT22;54193;53.746;10.058;2023-02-28T08:45:13;6.09;66.09
67279;DHT22;54193;53.746;10.058;2023-02-28T08:47:59;6.52;63.63
67279;DHT22;54193;53.746;10.058;2023-02-28T08:50:58;6.20;64.95
67279;DHT22;54193;53.746;10.058;2023-02-28T08:53:44;6.14;65.35
67279;DHT22;54193;53.746;10.058;2023-02-28T08:56:31;5.94;62.36
67279;DHT22;54193;53.746;10.058;2023-02-28T08:59:16;7.10;61.41
67279;DHT22;54193;53.746;10.058;2023-02-28T09:02:02;6.97;60.24
67279;DHT22;54193;53.746;10.058;2023-02-28T09:04:48;6.59;61.67
67279;DHT22;54193;53.746;10.058;2023-02-28T09:07:34;5.94;66.70
67279;DHT22;54193;53.746;10.058;2023-02-28T09:10:20;7.17;61.70
67279;DHT22;54193;53.746;10.058;2023-02-28T09:13:07;8.42;57.15
67279;DHT22;54193;53.746;10.058;2023-02-28T09:15:53;8.51;52.92
67279;DHT22;54193;53.746;10.058;2023-02-28T09:18:39;8.34;57.89
67279;DHT22;54193;53.746;10.058;2023-02-28T09:21:25;9.81;52.51
67279;DHT22;54193;53.746;10.058;2023-02-28T09:24:11;9.59;53.58
67279;DHT22;54193;53.746;10.058;2023-02-28T09:26:59;8.86;54.65
67279;DHT22;54193;53.746;10.058;2023-02-28T09:29:45;10.61;48.33
67279;DHT22;54193;53.746;10.058;2023-02-28T09:32:31;10.29;49.33
67279;DHT22;54193;53.746;10.058;2023-02-28T09:35:18;11.00;47.21
67279;DHT22;54193;53.746;10.058;2023-02-28T09:38:05;11.10;44.18
67279;DHT22;54193;53.746;10.058;2023-02-28T09:40:55;10.83;46.77
67279;DHT22;54193;53.746;10.058;2023-02-28T09:43:45;12.39;44.40
67279;DHT22;54193;53.746;10.058;2023-02-28T09:46:37;12.80;44.54
67279;DHT22;54193;53.746;10.058;2023-02-28T09:49:33;12.63;43.00
67279;DHT22;54193;53.746;10.058;2023-02-28T09:52:24;14.07;42.12
67279;DHT22;54193;53.746;10.058;2023-02-28T09:55:20;14.90;39.25
67279;DHT22;54193;53.746;10.058;2023-02-28T09:58:20;15.71;35.45
67279;DHT22;54193;53.746;10.058;2023-02-28T10:01:36;15.66;35.35
67279;DHT22;54193;53.746;10.058;2023-02-28T10:07:50;10.74;47.56
67279;DHT22;54193;53.746;10.058;2023-02-28T10:10:47;9.88;48.93
67279;DHT22;54193;53.746;10.058;2023-02-28T10:19:44;6.69;59.94
67279;DHT22;54193;53.746;10.058;2023-02-28T10:22:49;6.82;56.33
67279;DHT22;54193;53.746;10.058;2023-02-28T10:25:37;6.67;59.91
67279;DHT22;54193;53.746;10.058;2023-02-28T10:28:24;6.75;59.23
67279;DHT22;54193;53.746;10.058;2023-02-28T10:31:15;6.17;57.31
67279;DHT22;54193;53.746;10.058;2023-02-28T10:34:02;6.13;61.40
67279;DHT22;54193;53.746;10.058;2023-02-28T10:36:50;6.35;59.55
67279;DHT22;54193;53.746;10.058;2023-02-28T10:39:46;6.18;59.18
67279;DHT22;54193;53.746;10.058;2023-02-28T10:42:32;6.11;60.25
67279;DHT22;54193;53.746;10.058;2023-02-28T10:45:18;5.99;59.91
67279;DHT22;54193;53.746;10.058;2023-02-28T10:48:05;6.52;58.90
67279;DHT22;54193;53.746;10.058;2023-02-28T10:50:53;6.25;57.47
67279;DHT22;54193;53.746;10.058;2023-02-28T10:56:29;5.58;60.40
67279;DHT22;54193;53.746;10.058;2023-02-28T11:02:01;5.87;59.63
67279;DHT22;54193;53.746;10.058;2023-02-28T11:04:46;5.66;60.89
67279;DHT22;54193;53.746;10.058;2023-02-28T11:07:32;5.63;59.09
67279;DHT22;54193;53.746;10.058;2023-02-28T11:10:20;6.04;60.06
67279;DHT22;54193;53.746;10.058;2023-02-28T11:13:17;5.73;56.54
67279;DHT22;54193;53.746;10.058;2023-02-28T11:16:06;5.73;58.69
67279;DHT22;54193;53.746;10.058;2023-02-28T11:18:54;5.96;57.49
67279;DHT22;54193;53.746;10.058;2023-02-28T11:21:54;6.06;59.12
67279;DHT22;54193;53.746;10.058;2023-02-28T11:24:44;5.97;56.52
67279;DHT22;54193;53.746;10.058;2023-02-28T11:30:29;5.96;57.88
67279;DHT22;54193;53.746;10.058;2023-02-28T11:33:30;5.99;55.88
67279;DHT22;54193;53.746;10.058;2023-02-28T11:36:20;5.97;57.19
67279;DHT22;54193;53.746;10.058;2023-02-28T11:39:10;5.85;57.34
67279;DHT22;54193;53.746;10.058;2023-02-28T11:45:19;5.58;57.18
67279;DHT22;54193;53.746;10.058;2023-02-28T11:51:06;5.49;56.99
67279;DHT22;54193;53.746;10.058;2023-02-28T11:57:00;5.97;58.70
67279;DHT22;54193;53.746;10.058;2023-02-28T12:00:03;6.21;56.38
67279;DHT22;54193;53.746;10.058;2023-02-28T12:03:10;6.10;55.35
67279;DHT22;54193;53.746;10.058;2023-02-28T12:06:23;5.73;54.99
67279;DHT22;54193;53.746;10.058;2023-02-28T12:16:20;5.94;55.25
67279;DHT22;54193;53.746;10.058;2023-02-28T12:22:12;5.70;56.10
67279;DHT22;54193;53.746;10.058;2023-02-28T12:27:52;5.76;57.02
67279;DHT22;54193;53.746;10.058;2023-02-28T12:30:43;5.77;56.89
67279;DHT22;54193;53.746;10.058;2023-02-28T12:33:36;5.76;55.13
67279;DHT22;54193;53.746;10.058;2023-02-28T12:36:24;5.83;55.37
67279;DHT22;54193;53.746;10.058;2023-02-28T12:39:22;5.97;57.26
67279;DHT22;54193;53.746;10.058;2023-02-28T12:42:19;5.94;55.06
67279;DHT22;54193;53.746;10.058;2023-02-28T12:45:19;5.96;55.61
67279;DHT22;54193;53.746;10.058;2023-02-28T12:48:08;6.02;55.38
67279;DHT22;54193;53.746;10.058;2023-02-28T12:50:57;5.97;55.57
67279;DHT22;54193;53.746;10.058;2023-02-28T12:59:58;5.92;53.42
67279;DHT22;54193;53.746;10.058;2023-02-28T13:11:49;6.10;52.64
67279;DHT22;54193;53.746;10.058;2023-02-28T13:14:37;6.04;52.97
67279;DHT22;54193;53.746;10.058;2023-02-28T13:17:24;6.21;55.32
67279;DHT22;54193;53.746;10.058;2023-02-28T13:20:26;6.17;54.12
67279;DHT22;54193;53.746;10.058;2023-02-28T13:29:31;6.25;53.33
67279;DHT22;54193;53.746;10.058;2023-02-28T13:35:13;6.25;53.84
67279;DHT22;54193;53.746;10.058;2023-02-28T13:38:21;6.20;52.77
67279;DHT22;54193;53.746;10.058;2023-02-28T13:49:47;6.18;53.57
67279;DHT22;54193;53.746;10.058;2023-02-28T13:52:34;6.30;52.72
67279;DHT22;54193;53.746;10.058;2023-02-28T13:55:37;6.21;52.72
67279;DHT22;54193;53.746;10.058;2023-02-28T13:58:52;6.27;52.12
67279;DHT22;54193;53.746;10.058;2023-02-28T14:01:45;6.37;51.50
67279;DHT22;54193;53.746;10.058;2023-02-28T14:07:49;6.34;49.71
67279;DHT22;54193;53.746;10.058;2023-02-28T14:10:43;6.35;50.56
67279;DHT22;54193;53.746;10.058;2023-02-28T14:13:43;6.34;49.36
67279;DHT22;54193;53.746;10.058;2023-02-28T14:16:47;6.25;49.80
67279;DHT22;54193;53.746;10.058;2023-02-28T14:19:34;6.07;49.02
67279;DHT22;54193;53.746;10.058;2023-02-28T14:22:58;5.97;48.41
67279;DHT22;54193;53.746;10.058;2023-02-28T14:26:03;5.97;48.42
67279;DHT22;54193;53.746;10.058;2023-02-28T14:29:30;6.16;50.56
67279;DHT22;54193;53.746;10.058;2023-02-28T14:32:22;6.28;51.00
67279;DHT22;54193;53.746;10.058;2023-02-28T14:38:24;6.37;51.42
67279;DHT22;54193;53.746;10.058;2023-02-28T14:41:21;6.34;51.81
67279;DHT22;54193;53.746;10.058;2023-02-28T14:44:21;6.44;50.32
67279;DHT22;54193;53.746;10.058;2023-02-28T14:47:14;6.32;51.04
67279;DHT22;54193;53.746;10.058;2023-02-28T14:50:02;6.32;51.66
67279;DHT22;54193;53.746;10.058;2023-02-28T14:52:53;6.13;51.91
67279;DHT22;54193;53.746;10.058;2023-02-28T14:55:45;6.10;53.34
67279;DHT22;54193;53.746;10.058;2023-02-28T14:58:33;6.11;54.87
67279;DHT22;54193;53.746;10.058;2023-02-28T15:01:20;6.18;55.08
67279;DHT22;54193;53.746;10.058;2023-02-28T15:04:21;6.09;55.88
67279;DHT22;54193;53.746;10.058;2023-02-28T15:07:15;6.03;57.60
67279;DHT22;54193;53.746;10.058;2023-02-28T15:13:01;6.31;56.41
67279;DHT22;54193;53.746;10.058;2023-02-28T15:15:54;6.28;55.27
67279;DHT22;54193;53.746;10.058;2023-02-28T15:18:48;6.03;56.88
67279;DHT22;54193;53.746;10.058;2023-02-28T15:21:40;6.13;56.06
67279;DHT22;54193;53.746;10.058;2023-02-28T15:27:26;6.07;55.91
67279;DHT22;54193;53.746;10.058;2023-02-28T15:30:24;5.79;56.70
67279;DHT22;54193;53.746;10.058;2023-02-28T15:36:28;5.96;55.88
67279;DHT22;54193;53.746;10.058;2023-02-28T15:39:22;5.92;56.75
67279;DHT22;54193;53.746;10.058;2023-02-28T15:42:32;5.67;57.40
67279;DHT22;54193;53.746;10.058;2023-02-28T15:48:45;5.51;58.61
67279;DHT22;54193;53.746;10.058;2023-02-28T15:51:38;5.45;57.31
67279;DHT22;54193;53.746;10.058;2023-02-28T15:54:28;5.56;56.33
67279;DHT22;54193;53.746;10.058;2023-02-28T15:57:21;5.39;57.40
67279;DHT22;54193;53.746;10.058;2023-02-28T16:00:12;5.37;55.46
67279;DHT22;54193;53.746;10.058;2023-02-28T16:02:58;5.37;56.29
67279;DHT22;54193;53.746;10.058;2023-02-28T16:05:45;5.27;56.34
67279;DHT22;54193;53.746;10.058;2023-02-28T16:08:30;5.10;56.28
67279;DHT22;54193;53.746;10.058;2023-02-28T16:11:16;5.14;56.06
67279;DHT22;54193;53.746;10.058;2023-02-28T16:14:02;5.16;55.76
67279;DHT22;54193;53.746;10.058;2023-02-28T16:16:51;5.06;55.73
67279;DHT22;54193;53.746;10.058;2023-02-28T16:19:37;5.09;55.40
67279;DHT22;54193;53.746;10.058;2023-02-28T16:22:22;4.87;56.48
67279;DHT22;54193;53.746;10.058;2023-02-28T16:25:12;4.73;57.17
67279;DHT22;54193;53.746;10.058;2023-02-28T16:27:58;4.79;56.39
67279;DHT22;54193;53.746;10.058;2023-02-28T16:30:45;4.75;56.00
67279;DHT22;54193;53.746;10.058;2023-02-28T16:33:34;4.75;55.74
67279;DHT22;54193;53.746;10.058;2023-02-28T16:36:22;4.37;62.43
67279;DHT22;54193;53.746;10.058;2023-02-28T16:39:10;4.07;65.54
67279;DHT22;54193;53.746;10.058;2023-02-28T16:41:56;3.83;67.02
67279;DHT22;54193;53.746;10.058;2023-02-28T16:44:42;3.49;67.39
67279;DHT22;54193;53.746;10.058;2023-02-28T16:47:28;3.24;68.57
67279;DHT22;54193;53.746;10.058;2023-02-28T16:50:19;3.01;70.90
67279;DHT22;54193;53.746;10.058;2023-02-28T16:53:05;2.77;69.67
67279;DHT22;54193;53.746;10.058;2023-02-28T16:55:51;2.76;72.33
67279;DHT22;54193;53.746;10.058;2023-02-28T16:58:36;2.66;72.41
67279;DHT22;54193;53.746;10.058;2023-02-28T17:01:22;2.62;72.56
67279;DHT22;54193;53.746;10.058;2023-02-28T17:04:10;2.50;72.18
67279;DHT22;54193;53.746;10.058;2023-02-28T17:06:55;2.37;73.71
67279;DHT22;54193;53.746;10.058;2023-02-28T17:09:42;2.22;72.92
67279;DHT22;54193;53.746;10.058;2023-02-28T17:12:27;2.18;73.92
67279;DHT22;54193;53.746;10.058;2023-02-28T17:15:15;2.11;75.68
67279;DHT22;54193;53.746;10.058;2023-02-28T17:18:01;2.03;76.02
67279;DHT22;54193;53.746;10.058;2023-02-28T17:20:47;2.00;76.31
67279;DHT22;54193;53.746;10.058;2023-02-28T17:23:33;1.90;75.62
67279;DHT22;54193;53.746;10.058;2023-02-28T17:26:20;1.81;75.68
67279;DHT22;54193;53.746;10.058;2023-02-28T17:29:18;1.72;76.32
67279;DHT22;54193;53.746;10.058;2023-02-28T17:32:13;1.67;76.31
67279;DHT22;54193;53.746;10.058;2023-02-28T17:35:00;1.62;76.04
67279;DHT22;54193;53.746;10.058;2023-02-28T17:37:46;1.58;76.61
67279;DHT22;54193;53.746;10.058;2023-02-28T17:40:31;1.53;76.60
67279;DHT22;54193;53.746;10.058;2023-02-28T17:43:19;1.43;77.11
67279;DHT22;54193;53.746;10.058;2023-02-28T17:46:05;1.38;77.33
67279;DHT22;54193;53.746;10.058;2023-02-28T17:48:52;1.30;76.97
67279;DHT22;54193;53.746;10.058;2023-02-28T17:51:38;1.11;77.34
67279;DHT22;54193;53.746;10.058;2023-02-28T17:54:24;1.05;77.28
67279;DHT22;54193;53.746;10.058;2023-02-28T17:57:14;1.07;77.56
67279;DHT22;54193;53.746;10.058;2023-02-28T18:00:01;1.09;77.84
67279;DHT22;54193;53.746;10.058;2023-02-28T18:02:51;1.05;78.04
67279;DHT22;54193;53.746;10.058;2023-02-28T18:05:36;1.07;78.30
67279;DHT22;54193;53.746;10.058;2023-02-28T18:08:22;0.98;77.98
67279;DHT22;54193;53.746;10.058;2023-02-28T18:11:08;0.88;78.88
67279;DHT22;54193;53.746;10.058;2023-02-28T18:14:03;0.76;79.28
67279;DHT22;54193;53.746;10.058;2023-02-28T18:16:49;0.75;79.13
67279;DHT22;54193;53.746;10.058;2023-02-28T18:19:35;0.73;80.66
67279;DHT22;54193;53.746;10.058;2023-02-28T18:22:23;0.59;80.11
67279;DHT22;54193;53.746;10.058;2023-02-28T18:25:10;0.53;79.43
67279;DHT22;54193;53.746;10.058;2023-02-28T18:28:01;0.49;79.95
67279;DHT22;54193;53.746;10.058;2023-02-28T18:30:46;0.46;80.07
67279;DHT22;54193;53.746;10.058;2023-02-28T18:33:32;0.32;80.69
67279;DHT22;54193;53.746;10.058;2023-02-28T18:36:19;0.26;81.72
67279;DHT22;54193;53.746;10.058;2023-02-28T18:39:05;0.24;82.73
67279;DHT22;54193;53.746;10.058;2023-02-28T18:41:51;0.18;83.43
67279;DHT22;54193;53.746;10.058;2023-02-28T18:44:36;0.21;83.71
67279;DHT22;54193;53.746;10.058;2023-02-28T18:47:22;0.17;82.45
67279;DHT22;54193;53.746;10.058;2023-02-28T18:50:08;0.12;82.20
67279;DHT22;54193;53.746;10.058;2023-02-28T18:52:54;0.26;81.09
67279;DHT22;54193;53.746;10.058;2023-02-28T18:55:42;0.32;80.41
67279;DHT22;54193;53.746;10.058;2023-02-28T18:58:28;0.32;80.63
67279;DHT22;54193;53.746;10.058;2023-02-28T19:01:23;0.24;80.20
67279;DHT22;54193;53.746;10.058;2023-02-28T19:04:11;0.18;80.47
67279;DHT22;54193;53.746;10.058;2023-02-28T19:06:57;0.22;79.95
67279;DHT22;54193;53.746;10.058;2023-02-28T19:09:43;0.19;79.51
67279;DHT22;54193;53.746;10.058;2023-02-28T19:12:36;0.14;80.48
67279;DHT22;54193;53.746;10.058;2023-02-28T19:15:22;-0.02;80.99
67279;DHT22;54193;53.746;10.058;2023-02-28T19:18:09;-0.17;81.59
67279;DHT22;54193;53.746;10.058;2023-02-28T19:20:54;-0.23;82.04
67279;DHT22;54193;53.746;10.058;2023-02-28T19:23:40;-0.38;81.95
67279;DHT22;54193;53.746;10.058;2023-02-28T19:26:26;-0.47;83.07
67279;DHT22;54193;53.746;10.058;2023-02-28T19:29:12;-0.50;83.18
67279;DHT22;54193;53.746;10.058;2023-02-28T19:31:59;-0.47;83.60
67279;DHT22;54193;53.746;10.058;2023-02-28T19:34:45;-0.33;83.86
67279;DHT22;54193;53.746;10.058;2023-02-28T19:37:36;-0.40;83.52